sensor_id;sensor_type;location;lat;lon;timestamp;P1;durP1;ratioP1;P2;durP2;ratioP2
9739;SDS011;4909;42.680;26.324;2023-05-07T00:01:36;2.27;;;1.40;;
9739;SDS011;4909;42.680;26.324;2023-05-07T00:04:04;1.80;;;1.20;;
9739;SDS011;4909;42.680;26.324;2023-05-07T00:06:32;2.13;;;1.50;;
9739;SDS011;4909;42.680;26.324;2023-05-07T00:08:59;1.40;;;1.10;;
9739;SDS011;4909;42.680;26.324;2023-05-07T00:11:26;2.77;;;1.60;;
9739;SDS011;4909;42.680;26.324;2023-05-07T00:13:53;2.50;;;1.50;;
9739;SDS011;4909;42.680;26.324;2023-05-07T00:16:20;1.63;;;1.23;;
9739;SDS011;4909;42.680;26.324;2023-05-07T00:18:47;2.27;;;1.53;;
9739;SDS011;4909;42.680;26.324;2023-05-07T00:21:15;1.67;;;1.20;;
9739;SDS011;4909;42.680;26.324;2023-05-07T00:23:42;2.03;;;1.33;;
9739;SDS011;4909;42.680;26.324;2023-05-07T00:26:09;1.67;;;1.27;;
9739;SDS011;4909;42.680;26.324;2023-05-07T00:28:36;2.03;;;1.33;;
9739;SDS011;4909;42.680;26.324;2023-05-07T00:31:02;2.10;;;1.40;;
9739;SDS011;4909;42.680;26.324;2023-05-07T00:33:29;1.83;;;1.30;;
9739;SDS011;4909;42.680;26.324;2023-05-07T00:35:56;2.47;;;1.57;;
9739;SDS011;4909;42.680;26.324;2023-05-07T00:38:24;2.07;;;1.40;;
9739;SDS011;4909;42.680;26.324;2023-05-07T00:40:51;1.73;;;1.20;;
9739;SDS011;4909;42.680;26.324;2023-05-07T00:43:18;1.63;;;1.17;;
9739;SDS011;4909;42.680;26.324;2023-05-07T00:45:45;2.20;;;1.40;;
9739;SDS011;4909;42.680;26.324;2023-05-07T00:48:11;2.33;;;1.47;;
9739;SDS011;4909;42.680;26.324;2023-05-07T00:50:39;1.93;;;1.37;;
9739;SDS011;4909;42.680;26.324;2023-05-07T00:53:06;2.13;;;1.33;;
9739;SDS011;4909;42.680;26.324;2023-05-07T00:55:35;2.00;;;1.27;;
9739;SDS011;4909;42.680;26.324;2023-05-07T00:58:01;2.13;;;1.40;;
9739;SDS011;4909;42.680;26.324;2023-05-07T01:00:28;1.90;;;1.40;;
9739;SDS011;4909;42.680;26.324;2023-05-07T01:02:55;2.27;;;1.43;;
9739;SDS011;4909;42.680;26.324;2023-05-07T01:05:22;2.23;;;1.50;;
9739;SDS011;4909;42.680;26.324;2023-05-07T01:07:50;2.13;;;1.53;;
9739;SDS011;4909;42.680;26.324;2023-05-07T01:10:19;1.77;;;1.13;;
9739;SDS011;4909;42.680;26.324;2023-05-07T01:12:48;2.37;;;1.47;;
9739;SDS011;4909;42.680;26.324;2023-05-07T01:15:16;1.97;;;1.27;;
9739;SDS011;4909;42.680;26.324;2023-05-07T01:17:43;1.73;;;1.17;;
9739;SDS011;4909;42.680;26.324;2023-05-07T01:20:11;2.37;;;1.53;;
9739;SDS011;4909;42.680;26.324;2023-05-07T01:22:40;1.93;;;1.40;;
9739;SDS011;4909;42.680;26.324;2023-05-07T01:25:07;1.47;;;1.10;;
9739;SDS011;4909;42.680;26.324;2023-05-07T01:27:34;2.20;;;1.50;;
9739;SDS011;4909;42.680;26.324;2023-05-07T01:30:02;1.67;;;1.23;;
9739;SDS011;4909;42.680;26.324;2023-05-07T01:32:31;1.63;;;1.13;;
9739;SDS011;4909;42.680;26.324;2023-05-07T01:35:00;1.97;;;1.27;;
9739;SDS011;4909;42.680;26.324;2023-05-07T01:37:29;2.70;;;1.73;;
9739;SDS011;4909;42.680;26.324;2023-05-07T01:39:57;1.97;;;1.43;;
9739;SDS011;4909;42.680;26.324;2023-05-07T01:42:25;2.43;;;1.50;;
9739;SDS011;4909;42.680;26.324;2023-05-07T01:44:51;1.77;;;1.33;;
9739;SDS011;4909;42.680;26.324;2023-05-07T01:47:18;1.50;;;1.07;;
9739;SDS011;4909;42.680;26.324;2023-05-07T01:49:46;2.23;;;1.50;;
9739;SDS011;4909;42.680;26.324;2023-05-07T01:52:13;2.70;;;1.63;;
9739;SDS011;4909;42.680;26.324;2023-05-07T01:54:40;1.80;;;1.30;;
9739;SDS011;4909;42.680;26.324;2023-05-07T01:57:09;1.90;;;1.30;;
9739;SDS011;4909;42.680;26.324;2023-05-07T01:59:35;1.97;;;1.40;;
9739;SDS011;4909;42.680;26.324;2023-05-07T02:02:02;2.73;;;1.67;;
9739;SDS011;4909;42.680;26.324;2023-05-07T02:04:29;2.03;;;1.50;;
9739;SDS011;4909;42.680;26.324;2023-05-07T02:06:56;2.23;;;1.47;;
9739;SDS011;4909;42.680;26.324;2023-05-07T02:09:22;2.23;;;1.40;;
9739;SDS011;4909;42.680;26.324;2023-05-07T02:11:49;2.00;;;1.37;;
9739;SDS011;4909;42.680;26.324;2023-05-07T02:14:17;1.77;;;1.33;;
9739;SDS011;4909;42.680;26.324;2023-05-07T02:16:45;2.03;;;1.47;;
9739;SDS011;4909;42.680;26.324;2023-05-07T02:19:11;1.57;;;1.10;;
9739;SDS011;4909;42.680;26.324;2023-05-07T02:21:38;2.10;;;1.40;;
9739;SDS011;4909;42.680;26.324;2023-05-07T02:24:05;2.27;;;1.63;;
9739;SDS011;4909;42.680;26.324;2023-05-07T02:26:32;1.53;;;1.23;;
9739;SDS011;4909;42.680;26.324;2023-05-07T02:28:59;2.20;;;1.43;;
9739;SDS011;4909;42.680;26.324;2023-05-07T02:31:27;1.80;;;1.43;;
9739;SDS011;4909;42.680;26.324;2023-05-07T02:33:54;1.20;;;1.07;;
9739;SDS011;4909;42.680;26.324;2023-05-07T02:36:20;1.57;;;1.37;;
9739;SDS011;4909;42.680;26.324;2023-05-07T02:38:47;1.60;;;1.20;;
9739;SDS011;4909;42.680;26.324;2023-05-07T02:41:14;2.10;;;1.50;;
9739;SDS011;4909;42.680;26.324;2023-05-07T02:43:41;2.17;;;1.50;;
9739;SDS011;4909;42.680;26.324;2023-05-07T02:46:08;1.27;;;1.17;;
9739;SDS011;4909;42.680;26.324;2023-05-07T02:48:37;1.83;;;1.20;;
9739;SDS011;4909;42.680;26.324;2023-05-07T02:51:04;2.07;;;1.37;;
9739;SDS011;4909;42.680;26.324;2023-05-07T02:53:31;1.50;;;1.13;;
9739;SDS011;4909;42.680;26.324;2023-05-07T02:55:58;1.60;;;1.27;;
9739;SDS011;4909;42.680;26.324;2023-05-07T02:58:26;1.53;;;1.20;;
9739;SDS011;4909;42.680;26.324;2023-05-07T03:00:53;1.83;;;1.37;;
9739;SDS011;4909;42.680;26.324;2023-05-07T03:03:20;1.73;;;1.27;;
9739;SDS011;4909;42.680;26.324;2023-05-07T03:05:49;1.10;;;1.00;;
9739;SDS011;4909;42.680;26.324;2023-05-07T03:08:15;1.60;;;1.20;;
9739;SDS011;4909;42.680;26.324;2023-05-07T03:10:42;1.70;;;1.33;;
9739;SDS011;4909;42.680;26.324;2023-05-07T03:13:09;1.43;;;1.10;;
9739;SDS011;4909;42.680;26.324;2023-05-07T03:15:36;1.63;;;1.30;;
9739;SDS011;4909;42.680;26.324;2023-05-07T03:18:02;1.70;;;1.30;;
9739;SDS011;4909;42.680;26.324;2023-05-07T03:20:30;2.03;;;1.57;;
9739;SDS011;4909;42.680;26.324;2023-05-07T03:22:59;1.33;;;1.20;;
9739;SDS011;4909;42.680;26.324;2023-05-07T03:25:25;1.30;;;1.10;;
9739;SDS011;4909;42.680;26.324;2023-05-07T03:27:52;1.43;;;1.17;;
9739;SDS011;4909;42.680;26.324;2023-05-07T03:30:19;1.37;;;1.10;;
9739;SDS011;4909;42.680;26.324;2023-05-07T03:32:46;1.47;;;1.33;;
9739;SDS011;4909;42.680;26.324;2023-05-07T03:35:13;1.47;;;1.23;;
9739;SDS011;4909;42.680;26.324;2023-05-07T03:37:40;1.80;;;1.33;;
9739;SDS011;4909;42.680;26.324;2023-05-07T03:40:08;1.50;;;1.10;;
9739;SDS011;4909;42.680;26.324;2023-05-07T03:42:37;1.57;;;1.17;;
9739;SDS011;4909;42.680;26.324;2023-05-07T03:45:04;1.43;;;1.10;;
9739;SDS011;4909;42.680;26.324;2023-05-07T03:47:31;0.90;;;0.83;;
9739;SDS011;4909;42.680;26.324;2023-05-07T03:49:58;1.63;;;1.17;;
9739;SDS011;4909;42.680;26.324;2023-05-07T03:52:25;1.67;;;1.30;;
9739;SDS011;4909;42.680;26.324;2023-05-07T03:54:52;1.63;;;1.30;;
9739;SDS011;4909;42.680;26.324;2023-05-07T03:57:20;1.20;;;1.00;;
9739;SDS011;4909;42.680;26.324;2023-05-07T03:59:47;1.53;;;1.23;;
9739;SDS011;4909;42.680;26.324;2023-05-07T04:02:14;1.63;;;1.20;;
9739;SDS011;4909;42.680;26.324;2023-05-07T04:04:40;1.67;;;1.37;;
9739;SDS011;4909;42.680;26.324;2023-05-07T04:07:07;1.63;;;1.23;;
9739;SDS011;4909;42.680;26.324;2023-05-07T04:09:35;1.43;;;1.13;;
9739;SDS011;4909;42.680;26.324;2023-05-07T04:12:01;1.27;;;1.07;;
9739;SDS011;4909;42.680;26.324;2023-05-07T04:14:30;1.83;;;1.40;;
9739;SDS011;4909;42.680;26.324;2023-05-07T04:16:57;2.40;;;1.60;;
9739;SDS011;4909;42.680;26.324;2023-05-07T04:19:24;1.93;;;1.40;;
9739;SDS011;4909;42.680;26.324;2023-05-07T04:21:51;2.13;;;1.43;;
9739;SDS011;4909;42.680;26.324;2023-05-07T04:24:18;1.70;;;1.50;;
9739;SDS011;4909;42.680;26.324;2023-05-07T04:26:45;1.73;;;1.20;;
9739;SDS011;4909;42.680;26.324;2023-05-07T04:29:12;2.00;;;1.37;;
9739;SDS011;4909;42.680;26.324;2023-05-07T04:31:40;2.13;;;1.43;;
9739;SDS011;4909;42.680;26.324;2023-05-07T04:34:09;2.07;;;1.40;;
9739;SDS011;4909;42.680;26.324;2023-05-07T04:36:36;1.63;;;1.17;;
9739;SDS011;4909;42.680;26.324;2023-05-07T04:39:03;2.53;;;1.67;;
9739;SDS011;4909;42.680;26.324;2023-05-07T04:41:30;1.83;;;1.27;;
9739;SDS011;4909;42.680;26.324;2023-05-07T04:43:57;1.90;;;1.50;;
9739;SDS011;4909;42.680;26.324;2023-05-07T04:46:24;1.53;;;1.20;;
9739;SDS011;4909;42.680;26.324;2023-05-07T04:48:52;2.23;;;1.53;;
9739;SDS011;4909;42.680;26.324;2023-05-07T04:51:19;2.63;;;1.50;;
9739;SDS011;4909;42.680;26.324;2023-05-07T04:53:45;2.07;;;1.37;;
9739;SDS011;4909;42.680;26.324;2023-05-07T04:56:12;2.17;;;1.40;;
9739;SDS011;4909;42.680;26.324;2023-05-07T04:58:39;1.67;;;1.13;;
9739;SDS011;4909;42.680;26.324;2023-05-07T05:01:06;2.07;;;1.37;;
9739;SDS011;4909;42.680;26.324;2023-05-07T05:03:33;2.53;;;1.70;;
9739;SDS011;4909;42.680;26.324;2023-05-07T05:06:01;2.03;;;1.60;;
9739;SDS011;4909;42.680;26.324;2023-05-07T05:08:27;3.13;;;1.93;;
9739;SDS011;4909;42.680;26.324;2023-05-07T05:10:56;2.30;;;1.70;;
9739;SDS011;4909;42.680;26.324;2023-05-07T05:13:23;2.40;;;1.83;;
9739;SDS011;4909;42.680;26.324;2023-05-07T05:15:50;2.33;;;1.77;;
9739;SDS011;4909;42.680;26.324;2023-05-07T05:18:16;2.23;;;1.50;;
9739;SDS011;4909;42.680;26.324;2023-05-07T05:20:43;2.47;;;1.57;;
9739;SDS011;4909;42.680;26.324;2023-05-07T05:23:11;1.90;;;1.27;;
9739;SDS011;4909;42.680;26.324;2023-05-07T05:25:38;1.90;;;1.27;;
9739;SDS011;4909;42.680;26.324;2023-05-07T05:28:05;1.80;;;1.30;;
9739;SDS011;4909;42.680;26.324;2023-05-07T05:30:32;1.63;;;1.20;;
9739;SDS011;4909;42.680;26.324;2023-05-07T05:32:59;2.67;;;1.80;;
9739;SDS011;4909;42.680;26.324;2023-05-07T05:35:26;1.73;;;1.13;;
9739;SDS011;4909;42.680;26.324;2023-05-07T05:37:52;1.90;;;1.27;;
9739;SDS011;4909;42.680;26.324;2023-05-07T05:40:21;1.70;;;1.30;;
9739;SDS011;4909;42.680;26.324;2023-05-07T05:42:47;1.67;;;1.27;;
9739;SDS011;4909;42.680;26.324;2023-05-07T05:45:14;1.53;;;1.20;;
9739;SDS011;4909;42.680;26.324;2023-05-07T05:47:41;2.03;;;1.30;;
9739;SDS011;4909;42.680;26.324;2023-05-07T05:50:08;2.20;;;1.50;;
9739;SDS011;4909;42.680;26.324;2023-05-07T05:52:35;2.10;;;1.50;;
9739;SDS011;4909;42.680;26.324;2023-05-07T05:55:02;2.07;;;1.37;;
9739;SDS011;4909;42.680;26.324;2023-05-07T05:57:30;1.77;;;1.30;;
9739;SDS011;4909;42.680;26.324;2023-05-07T05:59:57;1.90;;;1.23;;
9739;SDS011;4909;42.680;26.324;2023-05-07T06:02:24;1.83;;;1.30;;
9739;SDS011;4909;42.680;26.324;2023-05-07T06:04:51;1.97;;;1.33;;
9739;SDS011;4909;42.680;26.324;2023-05-07T06:07:17;1.97;;;1.30;;
9739;SDS011;4909;42.680;26.324;2023-05-07T06:09:44;1.80;;;1.33;;
9739;SDS011;4909;42.680;26.324;2023-05-07T06:12:11;2.20;;;1.53;;
9739;SDS011;4909;42.680;26.324;2023-05-07T06:14:39;2.43;;;1.50;;
9739;SDS011;4909;42.680;26.324;2023-05-07T06:17:06;2.37;;;1.63;;
9739;SDS011;4909;42.680;26.324;2023-05-07T06:19:33;2.50;;;1.57;;
9739;SDS011;4909;42.680;26.324;2023-05-07T06:22:00;1.73;;;1.30;;
9739;SDS011;4909;42.680;26.324;2023-05-07T06:24:27;2.57;;;1.67;;
9739;SDS011;4909;42.680;26.324;2023-05-07T06:26:54;1.63;;;1.10;;
9739;SDS011;4909;42.680;26.324;2023-05-07T06:29:23;2.20;;;1.50;;
9739;SDS011;4909;42.680;26.324;2023-05-07T06:31:52;2.37;;;1.47;;
9739;SDS011;4909;42.680;26.324;2023-05-07T06:34:19;2.37;;;1.43;;
9739;SDS011;4909;42.680;26.324;2023-05-07T06:36:45;2.60;;;1.60;;
9739;SDS011;4909;42.680;26.324;2023-05-07T06:39:12;2.70;;;1.60;;
9739;SDS011;4909;42.680;26.324;2023-05-07T06:41:39;3.27;;;1.80;;
9739;SDS011;4909;42.680;26.324;2023-05-07T06:44:06;2.43;;;1.60;;
9739;SDS011;4909;42.680;26.324;2023-05-07T06:46:33;3.03;;;1.70;;
9739;SDS011;4909;42.680;26.324;2023-05-07T06:49:01;3.00;;;1.80;;
9739;SDS011;4909;42.680;26.324;2023-05-07T06:51:27;2.93;;;1.60;;
9739;SDS011;4909;42.680;26.324;2023-05-07T06:53:55;3.33;;;1.93;;
9739;SDS011;4909;42.680;26.324;2023-05-07T06:56:21;2.67;;;1.57;;
9739;SDS011;4909;42.680;26.324;2023-05-07T06:58:49;3.87;;;1.97;;
9739;SDS011;4909;42.680;26.324;2023-05-07T07:01:16;2.60;;;1.40;;
9739;SDS011;4909;42.680;26.324;2023-05-07T07:03:42;3.47;;;1.80;;
9739;SDS011;4909;42.680;26.324;2023-05-07T07:06:11;2.13;;;1.30;;
9739;SDS011;4909;42.680;26.324;2023-05-07T07:08:37;2.13;;;1.20;;
9739;SDS011;4909;42.680;26.324;2023-05-07T07:11:04;1.73;;;1.00;;
9739;SDS011;4909;42.680;26.324;2023-05-07T07:13:31;1.80;;;1.00;;
9739;SDS011;4909;42.680;26.324;2023-05-07T07:15:58;1.83;;;1.23;;
9739;SDS011;4909;42.680;26.324;2023-05-07T07:18:25;1.47;;;0.90;;
9739;SDS011;4909;42.680;26.324;2023-05-07T07:20:51;2.97;;;1.50;;
9739;SDS011;4909;42.680;26.324;2023-05-07T07:23:19;3.67;;;1.83;;
9739;SDS011;4909;42.680;26.324;2023-05-07T07:25:46;2.37;;;1.33;;
9739;SDS011;4909;42.680;26.324;2023-05-07T07:28:13;3.10;;;1.70;;
9739;SDS011;4909;42.680;26.324;2023-05-07T07:30:40;3.27;;;1.60;;
9739;SDS011;4909;42.680;26.324;2023-05-07T07:33:06;2.93;;;1.57;;
9739;SDS011;4909;42.680;26.324;2023-05-07T07:35:33;2.30;;;1.20;;
9739;SDS011;4909;42.680;26.324;2023-05-07T07:38:00;2.53;;;1.37;;
9739;SDS011;4909;42.680;26.324;2023-05-07T07:40:29;3.33;;;1.70;;
9739;SDS011;4909;42.680;26.324;2023-05-07T07:42:56;4.00;;;2.00;;
9739;SDS011;4909;42.680;26.324;2023-05-07T07:45:23;4.47;;;2.03;;
9739;SDS011;4909;42.680;26.324;2023-05-07T07:47:49;3.63;;;1.87;;
9739;SDS011;4909;42.680;26.324;2023-05-07T07:50:16;3.03;;;1.63;;
9739;SDS011;4909;42.680;26.324;2023-05-07T07:52:43;3.00;;;1.50;;
9739;SDS011;4909;42.680;26.324;2023-05-07T07:55:10;2.90;;;1.57;;
9739;SDS011;4909;42.680;26.324;2023-05-07T07:57:38;3.53;;;1.77;;
9739;SDS011;4909;42.680;26.324;2023-05-07T08:00:05;3.23;;;1.57;;
9739;SDS011;4909;42.680;26.324;2023-05-07T08:02:33;3.23;;;1.77;;
9739;SDS011;4909;42.680;26.324;2023-05-07T08:04:59;2.63;;;1.33;;
9739;SDS011;4909;42.680;26.324;2023-05-07T08:07:26;1.80;;;1.00;;
9739;SDS011;4909;42.680;26.324;2023-05-07T08:09:53;2.50;;;1.40;;
9739;SDS011;4909;42.680;26.324;2023-05-07T08:12:20;2.67;;;1.40;;
9739;SDS011;4909;42.680;26.324;2023-05-07T08:14:48;3.50;;;1.80;;
9739;SDS011;4909;42.680;26.324;2023-05-07T08:17:15;2.17;;;1.27;;
9739;SDS011;4909;42.680;26.324;2023-05-07T08:19:41;3.33;;;1.63;;
9739;SDS011;4909;42.680;26.324;2023-05-07T08:22:08;2.30;;;1.27;;
9739;SDS011;4909;42.680;26.324;2023-05-07T08:24:35;2.43;;;1.30;;
9739;SDS011;4909;42.680;26.324;2023-05-07T08:27:02;2.97;;;1.43;;
9739;SDS011;4909;42.680;26.324;2023-05-07T08:29:29;4.03;;;1.87;;
9739;SDS011;4909;42.680;26.324;2023-05-07T08:31:57;3.07;;;1.53;;
9739;SDS011;4909;42.680;26.324;2023-05-07T08:34:24;3.63;;;1.90;;
9739;SDS011;4909;42.680;26.324;2023-05-07T08:36:51;2.87;;;1.63;;
9739;SDS011;4909;42.680;26.324;2023-05-07T08:39:18;3.20;;;1.63;;
9739;SDS011;4909;42.680;26.324;2023-05-07T08:41:44;3.27;;;1.53;;
9739;SDS011;4909;42.680;26.324;2023-05-07T08:44:12;3.47;;;1.70;;
9739;SDS011;4909;42.680;26.324;2023-05-07T08:46:40;2.50;;;1.27;;
9739;SDS011;4909;42.680;26.324;2023-05-07T08:49:09;2.70;;;1.40;;
9739;SDS011;4909;42.680;26.324;2023-05-07T08:51:36;3.60;;;1.70;;
9739;SDS011;4909;42.680;26.324;2023-05-07T08:54:04;2.93;;;1.47;;
9739;SDS011;4909;42.680;26.324;2023-05-07T08:56:32;2.60;;;1.40;;
9739;SDS011;4909;42.680;26.324;2023-05-07T08:58:58;3.00;;;1.43;;
9739;SDS011;4909;42.680;26.324;2023-05-07T09:01:25;4.07;;;1.87;;
9739;SDS011;4909;42.680;26.324;2023-05-07T09:03:52;4.30;;;1.97;;
9739;SDS011;4909;42.680;26.324;2023-05-07T09:06:21;3.30;;;1.50;;
9739;SDS011;4909;42.680;26.324;2023-05-07T09:08:51;3.23;;;1.57;;
9739;SDS011;4909;42.680;26.324;2023-05-07T09:11:21;3.90;;;1.77;;
9739;SDS011;4909;42.680;26.324;2023-05-07T09:13:48;3.73;;;1.70;;
9739;SDS011;4909;42.680;26.324;2023-05-07T09:16:20;3.17;;;1.60;;
9739;SDS011;4909;42.680;26.324;2023-05-07T09:18:48;2.73;;;1.43;;
9739;SDS011;4909;42.680;26.324;2023-05-07T09:21:18;4.30;;;1.90;;
9739;SDS011;4909;42.680;26.324;2023-05-07T09:23:49;4.83;;;2.17;;
9739;SDS011;4909;42.680;26.324;2023-05-07T09:26:17;3.87;;;1.77;;
9739;SDS011;4909;42.680;26.324;2023-05-07T09:28:45;4.10;;;1.80;;
9739;SDS011;4909;42.680;26.324;2023-05-07T09:31:12;4.40;;;2.00;;
9739;SDS011;4909;42.680;26.324;2023-05-07T09:33:39;3.57;;;1.60;;
9739;SDS011;4909;42.680;26.324;2023-05-07T09:36:06;4.23;;;1.93;;
9739;SDS011;4909;42.680;26.324;2023-05-07T09:38:35;4.23;;;1.83;;
9739;SDS011;4909;42.680;26.324;2023-05-07T09:41:05;3.70;;;1.60;;
9739;SDS011;4909;42.680;26.324;2023-05-07T09:43:33;5.40;;;2.20;;
9739;SDS011;4909;42.680;26.324;2023-05-07T09:46:02;3.83;;;1.77;;
9739;SDS011;4909;42.680;26.324;2023-05-07T09:48:32;2.67;;;1.40;;
9739;SDS011;4909;42.680;26.324;2023-05-07T09:51:02;4.60;;;1.83;;
9739;SDS011;4909;42.680;26.324;2023-05-07T09:53:33;4.27;;;1.90;;
9739;SDS011;4909;42.680;26.324;2023-05-07T09:56:00;4.50;;;2.00;;
9739;SDS011;4909;42.680;26.324;2023-05-07T09:58:29;3.60;;;1.60;;
9739;SDS011;4909;42.680;26.324;2023-05-07T10:00:58;3.87;;;1.80;;
9739;SDS011;4909;42.680;26.324;2023-05-07T10:03:26;3.00;;;1.47;;
9739;SDS011;4909;42.680;26.324;2023-05-07T10:05:55;4.80;;;2.07;;
9739;SDS011;4909;42.680;26.324;2023-05-07T10:08:24;3.23;;;1.60;;
9739;SDS011;4909;42.680;26.324;2023-05-07T10:10:51;3.60;;;1.70;;
9739;SDS011;4909;42.680;26.324;2023-05-07T10:13:18;3.47;;;1.70;;
9739;SDS011;4909;42.680;26.324;2023-05-07T10:15:46;3.27;;;1.53;;
9739;SDS011;4909;42.680;26.324;2023-05-07T10:18:14;3.67;;;1.70;;
9739;SDS011;4909;42.680;26.324;2023-05-07T10:20:41;3.40;;;1.50;;
9739;SDS011;4909;42.680;26.324;2023-05-07T10:23:12;2.43;;;1.37;;
9739;SDS011;4909;42.680;26.324;2023-05-07T10:25:41;3.07;;;1.43;;
9739;SDS011;4909;42.680;26.324;2023-05-07T10:28:08;3.47;;;1.60;;
9739;SDS011;4909;42.680;26.324;2023-05-07T10:30:40;3.30;;;1.50;;
9739;SDS011;4909;42.680;26.324;2023-05-07T10:33:23;3.83;;;1.83;;
9739;SDS011;4909;42.680;26.324;2023-05-07T10:35:55;2.77;;;1.40;;
9739;SDS011;4909;42.680;26.324;2023-05-07T10:38:24;2.90;;;1.40;;
9739;SDS011;4909;42.680;26.324;2023-05-07T10:40:51;3.50;;;1.57;;
9739;SDS011;4909;42.680;26.324;2023-05-07T10:43:18;4.77;;;2.17;;
9739;SDS011;4909;42.680;26.324;2023-05-07T10:45:54;3.13;;;1.50;;
9739;SDS011;4909;42.680;26.324;2023-05-07T10:48:38;4.30;;;1.80;;
9739;SDS011;4909;42.680;26.324;2023-05-07T10:51:37;4.63;;;1.97;;
9739;SDS011;4909;42.680;26.324;2023-05-07T10:54:23;5.10;;;2.10;;
9739;SDS011;4909;42.680;26.324;2023-05-07T10:56:49;5.20;;;2.10;;
9739;SDS011;4909;42.680;26.324;2023-05-07T10:59:30;3.50;;;1.57;;
9739;SDS011;4909;42.680;26.324;2023-05-07T11:02:00;3.70;;;1.60;;
9739;SDS011;4909;42.680;26.324;2023-05-07T11:04:29;3.93;;;1.70;;
9739;SDS011;4909;42.680;26.324;2023-05-07T11:07:21;3.67;;;1.63;;
9739;SDS011;4909;42.680;26.324;2023-05-07T11:10:04;3.67;;;1.70;;
9739;SDS011;4909;42.680;26.324;2023-05-07T11:12:51;2.93;;;1.40;;
9739;SDS011;4909;42.680;26.324;2023-05-07T11:18:20;4.33;;;1.97;;
9739;SDS011;4909;42.680;26.324;2023-05-07T11:20:51;4.23;;;1.90;;
9739;SDS011;4909;42.680;26.324;2023-05-07T11:26:24;4.57;;;1.87;;
9739;SDS011;4909;42.680;26.324;2023-05-07T11:28:51;3.37;;;1.47;;
9739;SDS011;4909;42.680;26.324;2023-05-07T11:31:23;3.60;;;1.50;;
9739;SDS011;4909;42.680;26.324;2023-05-07T11:33:53;3.83;;;1.63;;
9739;SDS011;4909;42.680;26.324;2023-05-07T11:36:21;4.13;;;1.90;;
9739;SDS011;4909;42.680;26.324;2023-05-07T11:38:49;4.83;;;2.00;;
9739;SDS011;4909;42.680;26.324;2023-05-07T11:41:16;4.80;;;2.00;;
9739;SDS011;4909;42.680;26.324;2023-05-07T11:43:54;3.27;;;1.47;;
9739;SDS011;4909;42.680;26.324;2023-05-07T11:46:25;3.47;;;1.67;;
9739;SDS011;4909;42.680;26.324;2023-05-07T11:48:54;3.97;;;1.70;;
9739;SDS011;4909;42.680;26.324;2023-05-07T11:51:22;3.83;;;1.70;;
9739;SDS011;4909;42.680;26.324;2023-05-07T11:53:51;3.77;;;1.60;;
9739;SDS011;4909;42.680;26.324;2023-05-07T11:56:18;5.43;;;2.20;;
9739;SDS011;4909;42.680;26.324;2023-05-07T11:58:46;4.83;;;1.97;;
9739;SDS011;4909;42.680;26.324;2023-05-07T12:01:14;3.17;;;1.47;;
9739;SDS011;4909;42.680;26.324;2023-05-07T12:03:42;4.20;;;1.80;;
9739;SDS011;4909;42.680;26.324;2023-05-07T12:06:12;2.77;;;1.23;;
9739;SDS011;4909;42.680;26.324;2023-05-07T12:08:40;3.90;;;1.70;;
9739;SDS011;4909;42.680;26.324;2023-05-07T12:11:08;4.50;;;1.97;;
9739;SDS011;4909;42.680;26.324;2023-05-07T12:13:36;2.90;;;1.30;;
9739;SDS011;4909;42.680;26.324;2023-05-07T12:16:04;3.90;;;1.67;;
9739;SDS011;4909;42.680;26.324;2023-05-07T12:18:32;3.40;;;1.57;;
9739;SDS011;4909;42.680;26.324;2023-05-07T12:21:00;3.70;;;1.63;;
9739;SDS011;4909;42.680;26.324;2023-05-07T12:23:29;2.83;;;1.20;;
9739;SDS011;4909;42.680;26.324;2023-05-07T12:25:56;4.50;;;1.90;;
9739;SDS011;4909;42.680;26.324;2023-05-07T12:28:23;4.73;;;2.00;;
9739;SDS011;4909;42.680;26.324;2023-05-07T12:30:50;3.43;;;1.60;;
9739;SDS011;4909;42.680;26.324;2023-05-07T12:33:18;3.73;;;1.73;;
9739;SDS011;4909;42.680;26.324;2023-05-07T12:35:49;3.57;;;1.60;;
9739;SDS011;4909;42.680;26.324;2023-05-07T12:38:16;3.57;;;1.60;;
9739;SDS011;4909;42.680;26.324;2023-05-07T12:40:46;3.30;;;1.50;;
9739;SDS011;4909;42.680;26.324;2023-05-07T12:43:16;3.50;;;1.50;;
9739;SDS011;4909;42.680;26.324;2023-05-07T12:45:44;3.97;;;1.73;;
9739;SDS011;4909;42.680;26.324;2023-05-07T12:48:11;3.80;;;1.70;;
9739;SDS011;4909;42.680;26.324;2023-05-07T12:50:38;3.17;;;1.43;;
9739;SDS011;4909;42.680;26.324;2023-05-07T12:53:05;4.17;;;1.80;;
9739;SDS011;4909;42.680;26.324;2023-05-07T12:55:39;3.37;;;1.53;;
9739;SDS011;4909;42.680;26.324;2023-05-07T12:58:09;2.90;;;1.40;;
9739;SDS011;4909;42.680;26.324;2023-05-07T13:00:42;4.47;;;1.80;;
9739;SDS011;4909;42.680;26.324;2023-05-07T13:03:09;3.33;;;1.53;;
9739;SDS011;4909;42.680;26.324;2023-05-07T13:05:36;4.57;;;1.90;;
9739;SDS011;4909;42.680;26.324;2023-05-07T13:08:03;3.13;;;1.50;;
9739;SDS011;4909;42.680;26.324;2023-05-07T13:10:30;3.97;;;1.77;;
9739;SDS011;4909;42.680;26.324;2023-05-07T13:12:59;4.43;;;1.93;;
9739;SDS011;4909;42.680;26.324;2023-05-07T13:15:27;3.37;;;1.47;;
9739;SDS011;4909;42.680;26.324;2023-05-07T13:17:54;3.97;;;1.63;;
9739;SDS011;4909;42.680;26.324;2023-05-07T13:20:20;4.30;;;1.77;;
9739;SDS011;4909;42.680;26.324;2023-05-07T13:22:47;3.53;;;1.50;;
9739;SDS011;4909;42.680;26.324;2023-05-07T13:25:14;3.40;;;1.57;;
9739;SDS011;4909;42.680;26.324;2023-05-07T13:27:41;4.40;;;1.80;;
9739;SDS011;4909;42.680;26.324;2023-05-07T13:30:08;4.80;;;2.00;;
9739;SDS011;4909;42.680;26.324;2023-05-07T13:32:36;3.27;;;1.47;;
9739;SDS011;4909;42.680;26.324;2023-05-07T13:35:03;3.93;;;1.77;;
9739;SDS011;4909;42.680;26.324;2023-05-07T13:37:31;3.70;;;1.53;;
9739;SDS011;4909;42.680;26.324;2023-05-07T13:39:58;3.47;;;1.50;;
9739;SDS011;4909;42.680;26.324;2023-05-07T13:42:24;4.97;;;2.00;;
9739;SDS011;4909;42.680;26.324;2023-05-07T13:44:51;2.77;;;1.20;;
9739;SDS011;4909;42.680;26.324;2023-05-07T13:47:18;3.63;;;1.53;;
9739;SDS011;4909;42.680;26.324;2023-05-07T13:49:46;3.73;;;1.73;;
9739;SDS011;4909;42.680;26.324;2023-05-07T13:52:14;3.27;;;1.53;;
9739;SDS011;4909;42.680;26.324;2023-05-07T13:54:41;2.80;;;1.37;;
9739;SDS011;4909;42.680;26.324;2023-05-07T13:57:08;4.00;;;1.73;;
9739;SDS011;4909;42.680;26.324;2023-05-07T13:59:35;3.77;;;1.70;;
9739;SDS011;4909;42.680;26.324;2023-05-07T14:02:01;3.80;;;1.70;;
9739;SDS011;4909;42.680;26.324;2023-05-07T14:04:28;4.60;;;2.00;;
9739;SDS011;4909;42.680;26.324;2023-05-07T14:06:57;3.47;;;1.67;;
9739;SDS011;4909;42.680;26.324;2023-05-07T14:09:24;3.47;;;1.57;;
9739;SDS011;4909;42.680;26.324;2023-05-07T14:11:51;3.80;;;1.57;;
9739;SDS011;4909;42.680;26.324;2023-05-07T14:14:18;4.20;;;1.83;;
9739;SDS011;4909;42.680;26.324;2023-05-07T14:16:45;4.33;;;1.90;;
9739;SDS011;4909;42.680;26.324;2023-05-07T14:19:12;3.40;;;1.63;;
9739;SDS011;4909;42.680;26.324;2023-05-07T14:21:39;5.00;;;2.03;;
9739;SDS011;4909;42.680;26.324;2023-05-07T14:24:07;4.30;;;1.90;;
9739;SDS011;4909;42.680;26.324;2023-05-07T14:26:34;3.13;;;1.43;;
9739;SDS011;4909;42.680;26.324;2023-05-07T14:29:01;3.33;;;1.50;;
9739;SDS011;4909;42.680;26.324;2023-05-07T14:31:28;3.77;;;1.60;;
9739;SDS011;4909;42.680;26.324;2023-05-07T14:33:54;3.43;;;1.57;;
9739;SDS011;4909;42.680;26.324;2023-05-07T14:36:23;3.93;;;1.77;;
9739;SDS011;4909;42.680;26.324;2023-05-07T14:38:51;4.10;;;1.80;;
9739;SDS011;4909;42.680;26.324;2023-05-07T14:41:19;3.17;;;1.40;;
9739;SDS011;4909;42.680;26.324;2023-05-07T14:43:47;4.67;;;1.97;;
9739;SDS011;4909;42.680;26.324;2023-05-07T14:46:15;3.27;;;1.47;;
9739;SDS011;4909;42.680;26.324;2023-05-07T14:48:42;4.03;;;1.90;;
9739;SDS011;4909;42.680;26.324;2023-05-07T14:51:10;2.77;;;1.27;;
9739;SDS011;4909;42.680;26.324;2023-05-07T14:53:37;3.57;;;1.77;;
9739;SDS011;4909;42.680;26.324;2023-05-07T14:56:04;3.50;;;1.50;;
9739;SDS011;4909;42.680;26.324;2023-05-07T14:58:32;3.77;;;1.67;;
9739;SDS011;4909;42.680;26.324;2023-05-07T15:00:59;3.33;;;1.43;;
9739;SDS011;4909;42.680;26.324;2023-05-07T15:03:26;3.53;;;1.50;;
9739;SDS011;4909;42.680;26.324;2023-05-07T15:05:53;2.53;;;1.20;;
9739;SDS011;4909;42.680;26.324;2023-05-07T15:08:20;3.63;;;1.63;;
9739;SDS011;4909;42.680;26.324;2023-05-07T15:10:47;3.63;;;1.63;;